Time;durP1;ratioP1;P1;durP2;ratioP2;P2;SDS_P1;SDS_P2;PMS_P1;PMS_P2;Temp;Humidity;BMP_temperature;BMP_pressure;BME280_temperature;BME280_humidity;BME280_pressure;Samples;Min_cycle;Max_cycle;Signal;HPM_P1;HPM_P2
2022/04/14 00:01:33;;;;;;;8.10;5.17;;;12.10;99.90;;;;;;5151965;27;20664;-84
2022/04/14 00:04:00;;;;;;;9.53;5.00;;;12.20;99.90;;;;;;5149180;27;20629;-84
2022/04/14 00:06:26;;;;;;;5.83;4.83;;;12.10;99.90;;;;;;5147447;27;21028;-84
2022/04/14 00:08:53;;;;;;;5.93;4.63;;;12.10;99.90;;;;;;5144764;27;20625;-85
2022/04/14 00:11:21;;;;;;;6.07;4.93;;;12.10;99.90;;;;;;5149765;27;21242;-85
2022/04/14 00:13:48;;;;;;;6.83;4.33;;;12.00;99.90;;;;;;5144587;27;20621;-84
2022/04/14 00:16:15;;;;;;;8.63;5.33;;;12.00;99.90;;;;;;5149072;27;20995;-85
2022/04/14 00:18:41;;;;;;;6.97;5.57;;;11.60;99.90;;;;;;5145254;27;20674;-85
2022/04/14 00:21:08;;;;;;;7.47;4.70;;;11.50;99.90;;;;;;5146943;27;20669;-85
2022/04/14 00:23:35;;;;;;;5.53;4.77;;;11.90;99.90;;;;;;5143882;27;21000;-85
2022/04/14 00:26:02;;;;;;;5.70;4.90;;;11.80;99.90;;;;;;5136877;27;20630;-86
2022/04/14 00:28:30;;;;;;;9.67;4.70;;;11.60;99.90;;;;;;5141675;27;20617;-85
2022/04/14 00:30:58;;;;;;;4.40;3.80;;;11.70;99.90;;;;;;5148017;27;20781;-85
2022/04/14 00:33:25;;;;;;;5.50;4.10;;;11.60;99.90;;;;;;5149611;27;20643;-85
2022/04/14 00:35:52;;;;;;;9.30;4.30;;;11.30;99.90;;;;;;5144115;27;20848;-85
2022/04/14 00:38:18;;;;;;;7.27;4.50;;;11.20;99.90;;;;;;5150180;27;20658;-85
2022/04/14 00:40:47;;;;;;;6.90;3.80;;;11.60;99.90;;;;;;5147871;27;21229;-85
2022/04/14 00:43:13;;;;;;;6.80;6.03;;;11.40;99.90;;;;;;5145738;27;20622;-85
2022/04/14 00:45:42;;;;;;;7.10;4.30;;;11.50;99.90;;;;;;5143564;27;20647;-85
2022/04/14 00:48:09;;;;;;;5.13;4.53;;;11.60;99.90;;;;;;5145018;27;21195;-85
2022/04/14 00:50:36;;;;;;;5.07;4.50;;;11.60;99.90;;;;;;5145604;27;20660;-84
2022/04/14 00:53:04;;;;;;;7.70;4.30;;;11.70;99.90;;;;;;5144364;27;21095;-85
2022/04/14 00:55:31;;;;;;;5.43;4.47;;;11.40;99.90;;;;;;5146743;27;20626;-85
2022/04/14 00:57:57;;;;;;;7.10;4.57;;;11.50;99.90;;;;;;5143214;27;20845;-84
2022/04/14 01:00:24;;;;;;;5.67;5.03;;;11.40;99.90;;;;;;5144209;27;20653;-84
2022/04/14 01:02:54;;;;;;;5.33;4.83;;;11.40;99.90;;;;;;5147179;27;20638;-84
2022/04/14 01:05:21;;;;;;;5.67;5.10;;;11.50;99.90;;;;;;5148553;27;20638;-85
2022/04/14 01:07:50;;;;;;;5.37;4.87;;;11.50;99.90;;;;;;5145501;27;20628;-85
2022/04/14 01:10:17;;;;;;;4.73;4.10;;;11.20;99.90;;;;;;5146239;27;20680;-84
2022/04/14 01:12:44;;;;;;;5.23;4.83;;;11.00;99.90;;;;;;5144496;27;20979;-85
2022/04/14 01:15:14;;;;;;;6.20;4.67;;;11.50;99.90;;;;;;5147705;27;21109;-85
2022/04/14 01:17:42;;;;;;;4.53;4.13;;;11.20;99.90;;;;;;5143570;27;20641;-85
2022/04/14 01:20:13;;;;;;;8.80;5.33;;;11.40;99.90;;;;;;5147406;27;20653;-85
2022/04/14 01:22:44;;;;;;;5.13;4.30;;;11.40;99.90;;;;;;5146193;27;21086;-85
2022/04/14 01:25:12;;;;;;;5.83;4.60;;;11.30;99.90;;;;;;5145515;27;20752;-86
2022/04/14 01:27:39;;;;;;;5.20;4.77;;;11.00;99.90;;;;;;5139427;27;20636;-85
2022/04/14 01:30:07;;;;;;;11.90;5.37;;;11.00;99.90;;;;;;5144508;27;20649;-84
2022/04/14 01:32:34;;;;;;;8.40;4.50;;;11.20;99.90;;;;;;5146668;27;20630;-85
2022/04/14 01:35:00;;;;;;;10.00;4.73;;;11.00;99.90;;;;;;5145204;27;20637;-85
2022/04/14 01:37:27;;;;;;;5.67;4.50;;;11.20;99.90;;;;;;5153172;27;21125;-85
2022/04/14 01:39:54;;;;;;;7.53;5.17;;;11.00;99.90;;;;;;5145863;27;20709;-85
2022/04/14 01:42:22;;;;;;;5.30;4.30;;;10.80;99.90;;;;;;5146992;27;20707;-85
2022/04/14 01:44:49;;;;;;;6.43;5.73;;;11.20;99.90;;;;;;5150478;27;20632;-85
2022/04/14 01:47:16;;;;;;;8.80;5.27;;;11.10;99.90;;;;;;5146279;27;20634;-86
2022/04/14 01:49:43;;;;;;;7.17;5.27;;;10.90;99.90;;;;;;5143093;27;20670;-85
2022/04/14 01:52:10;;;;;;;7.30;5.33;;;11.00;99.90;;;;;;5139616;27;20640;-84
2022/04/14 01:54:37;;;;;;;5.93;5.30;;;11.00;99.90;;;;;;5138207;27;20973;-85
2022/04/14 01:57:04;;;;;;;5.50;5.00;;;10.60;99.90;;;;;;5147976;27;20629;-84
2022/04/14 01:59:32;;;;;;;6.97;5.83;;;11.00;99.90;;;;;;5140173;27;20681;-84
2022/04/14 02:01:59;;;;;;;5.50;5.00;;;10.70;99.90;;;;;;5142334;27;20625;-84
2022/04/14 02:04:26;;;;;;;5.20;4.80;;;10.40;99.90;;;;;;5144176;27;20629;-84
2022/04/14 02:06:53;;;;;;;6.27;5.20;;;10.40;99.90;;;;;;5140399;27;20621;-84
2022/04/14 02:09:20;;;;;;;5.90;4.87;;;10.80;99.90;;;;;;5140851;27;20620;-84
2022/04/14 02:11:46;;;;;;;6.37;5.00;;;10.50;99.90;;;;;;5141092;27;21027;-84
2022/04/14 02:14:13;;;;;;;7.07;5.33;;;10.70;99.90;;;;;;5141358;27;20613;-84
2022/04/14 02:16:41;;;;;;;6.13;5.50;;;10.60;99.90;;;;;;5141092;27;20624;-84
2022/04/14 02:19:08;;;;;;;8.50;6.17;;;10.60;99.90;;;;;;5140274;27;21412;-84
2022/04/14 02:21:34;;;;;;;7.30;5.50;;;10.60;99.90;;;;;;5143063;27;20653;-84
2022/04/14 02:24:01;;;;;;;8.60;6.70;;;10.50;99.90;;;;;;5134537;27;20647;-84
2022/04/14 02:26:28;;;;;;;6.50;5.47;;;10.20;99.90;;;;;;5138315;27;20609;-84
2022/04/14 02:28:55;;;;;;;8.27;6.70;;;10.50;99.90;;;;;;5140719;27;21006;-84
2022/04/14 02:31:22;;;;;;;9.33;5.90;;;10.40;99.90;;;;;;5142852;27;20732;-84
2022/04/14 02:33:50;;;;;;;6.93;5.20;;;10.40;99.90;;;;;;5139879;27;20621;-84
2022/04/14 02:36:17;;;;;;;9.53;6.60;;;10.20;99.90;;;;;;5144961;27;20994;-84
2022/04/14 02:38:45;;;;;;;7.33;6.67;;;10.10;99.90;;;;;;5144461;27;20657;-84
2022/04/14 02:41:12;;;;;;;5.87;5.37;;;9.90;99.90;;;;;;5139630;27;20670;-84
2022/04/14 02:43:39;;;;;;;7.10;6.30;;;10.20;99.90;;;;;;5140860;27;20620;-84
2022/04/14 02:46:05;;;;;;;6.97;5.50;;;9.90;99.90;;;;;;5143836;27;20635;-84
2022/04/14 02:48:32;;;;;;;6.20;5.60;;;10.20;99.90;;;;;;5139871;27;20619;-84
2022/04/14 02:51:00;;;;;;;6.53;5.60;;;9.80;99.90;;;;;;5142132;27;21014;-83
2022/04/14 02:53:27;;;;;;;8.90;5.00;;;9.70;99.90;;;;;;5143236;27;20622;-83
2022/04/14 02:55:54;;;;;;;7.57;6.43;;;9.80;99.90;;;;;;5145742;27;20622;-83
2022/04/14 02:58:21;;;;;;;6.63;6.00;;;9.80;99.90;;;;;;5137859;27;20628;-83
2022/04/14 03:00:49;;;;;;;6.30;5.70;;;9.90;99.90;;;;;;5142153;27;20656;-86
2022/04/14 03:03:16;;;;;;;8.60;6.37;;;10.00;99.90;;;;;;5145369;27;21063;-84
2022/04/14 03:05:43;;;;;;;7.37;6.10;;;9.90;99.90;;;;;;5141412;27;20628;-84
2022/04/14 03:08:11;;;;;;;6.90;6.30;;;9.90;99.90;;;;;;5144788;27;21143;-85
2022/04/14 03:10:38;;;;;;;5.50;5.10;;;10.10;99.90;;;;;;5140364;27;20665;-84
2022/04/14 03:13:04;;;;;;;6.93;6.30;;;9.70;99.90;;;;;;5140656;27;20664;-84
2022/04/14 03:15:31;;;;;;;8.40;5.80;;;9.70;99.90;;;;;;5139236;27;20624;-86
2022/04/14 03:17:58;;;;;;;7.37;6.30;;;10.10;99.90;;;;;;5143575;27;20995;-84
2022/04/14 03:20:24;;;;;;;7.83;6.60;;;9.90;99.90;;;;;;5141264;27;20692;-84
2022/04/14 03:22:51;;;;;;;10.30;6.47;;;9.50;99.90;;;;;;5144109;27;20622;-85
2022/04/14 03:25:19;;;;;;;6.87;5.80;;;10.00;99.90;;;;;;5141927;27;20627;-83
2022/04/14 03:27:46;;;;;;;7.67;6.87;;;9.50;99.90;;;;;;5142146;27;20630;-83
2022/04/14 03:30:13;;;;;;;7.93;6.80;;;9.60;99.90;;;;;;5144466;27;20649;-85
2022/04/14 03:32:44;;;;;;;7.87;6.30;;;9.70;99.90;;;;;;5140526;27;20625;-83
2022/04/14 03:35:12;;;;;;;7.60;6.90;;;9.80;99.90;;;;;;5143963;27;20772;-83
2022/04/14 03:37:39;;;;;;;7.43;6.60;;;9.80;99.90;;;;;;5143565;27;20617;-84
2022/04/14 03:40:07;;;;;;;6.73;6.13;;;9.30;99.90;;;;;;5140178;27;20679;-84
2022/04/14 03:42:36;;;;;;;7.67;6.53;;;9.90;99.90;;;;;;5140946;27;20618;-84
2022/04/14 03:45:03;;;;;;;9.97;7.10;;;9.50;99.90;;;;;;5134967;27;20658;-84
2022/04/14 03:47:30;;;;;;;7.80;6.47;;;9.70;99.90;;;;;;5140390;27;20629;-85
2022/04/14 03:49:57;;;;;;;13.80;6.53;;;9.60;99.90;;;;;;5143462;27;20664;-85
2022/04/14 03:52:23;;;;;;;6.90;6.30;;;9.10;99.90;;;;;;5138674;27;20636;-85
2022/04/14 03:54:50;;;;;;;9.27;7.13;;;9.60;99.90;;;;;;5143196;27;20609;-84
2022/04/14 03:57:17;;;;;;;8.00;7.20;;;9.10;99.90;;;;;;5144550;27;20875;-85
2022/04/14 03:59:45;;;;;;;7.53;6.30;;;9.30;99.90;;;;;;5147425;27;20688;-85
2022/04/14 04:02:12;;;;;;;11.20;6.80;;;9.10;99.90;;;;;;5145898;27;20633;-85
2022/04/14 04:04:39;;;;;;;8.07;7.27;;;9.00;99.90;;;;;;5146138;27;20637;-85
2022/04/14 04:07:06;;;;;;;6.93;6.17;;;9.20;99.90;;;;;;5149200;27;21151;-86
2022/04/14 04:09:33;;;;;;;13.27;7.37;;;9.50;99.90;;;;;;5145999;27;20721;-85
2022/04/14 04:12:00;;;;;;;9.87;6.83;;;9.00;99.90;;;;;;5145550;27;20685;-87
2022/04/14 04:14:27;;;;;;;7.63;6.80;;;9.40;99.90;;;;;;5147228;27;20961;-86
2022/04/14 04:16:55;;;;;;;8.63;7.10;;;9.60;99.90;;;;;;5149883;27;20644;-86
2022/04/14 04:19:22;;;;;;;8.63;7.73;;;9.20;99.90;;;;;;5144472;27;20665;-85
2022/04/14 04:21:48;;;;;;;9.27;6.33;;;9.60;99.90;;;;;;5144831;27;20625;-85
2022/04/14 04:24:15;;;;;;;7.53;6.67;;;9.90;99.90;;;;;;5144260;27;21314;-85
2022/04/14 04:26:42;;;;;;;8.63;6.73;;;9.80;99.90;;;;;;5144819;27;20629;-84
2022/04/14 04:29:08;;;;;;;8.40;6.67;;;9.90;99.90;;;;;;5145351;27;20667;-85
2022/04/14 04:31:35;;;;;;;7.60;6.80;;;9.80;99.90;;;;;;5146128;27;21018;-85
2022/04/14 04:34:03;;;;;;;7.07;6.37;;;9.60;99.90;;;;;;5153454;27;21008;-84
2022/04/14 04:36:30;;;;;;;8.60;6.17;;;9.20;99.90;;;;;;5145720;27;20927;-85
2022/04/14 04:39:01;;;;;;;7.53;6.60;;;9.00;99.90;;;;;;5149719;27;20639;-85
2022/04/14 04:41:28;;;;;;;9.40;6.57;;;9.40;99.90;;;;;;5143803;27;20698;-85
2022/04/14 04:43:55;;;;;;;8.53;7.67;;;9.30;99.90;;;;;;5143758;27;20674;-85
2022/04/14 04:46:22;;;;;;;9.90;6.70;;;9.10;99.90;;;;;;5147099;27;20617;-85
2022/04/14 04:48:49;;;;;;;8.73;7.53;;;9.40;99.90;;;;;;5143795;27;20957;-85
2022/04/14 04:51:17;;;;;;;8.73;6.80;;;9.30;99.90;;;;;;5146237;27;20652;-86
2022/04/14 04:53:44;;;;;;;7.90;7.10;;;9.00;99.90;;;;;;5143107;27;20644;-86
2022/04/14 04:56:11;;;;;;;10.17;7.40;;;9.00;99.90;;;;;;5150594;27;20625;-85
2022/04/14 04:58:37;;;;;;;12.80;7.00;;;9.10;99.90;;;;;;5140638;27;20807;-86
2022/04/14 05:01:04;;;;;;;7.60;6.80;;;9.10;99.90;;;;;;5144857;27;20688;-86
2022/04/14 05:03:31;;;;;;;7.20;6.33;;;8.90;99.90;;;;;;5148347;27;20625;-85
2022/04/14 05:05:58;;;;;;;6.97;6.47;;;9.00;99.90;;;;;;5142988;27;20621;-86
2022/04/14 05:08:26;;;;;;;9.03;7.43;;;9.20;99.90;;;;;;5142791;27;20989;-85
2022/04/14 05:10:53;;;;;;;11.70;7.23;;;9.20;99.90;;;;;;5141800;27;20641;-86
2022/04/14 05:13:20;;;;;;;11.77;7.80;;;9.60;99.90;;;;;;5144434;27;20605;-87
2022/04/14 05:15:47;;;;;;;8.90;7.43;;;9.10;99.90;;;;;;5143682;27;20633;-86
2022/04/14 05:18:13;;;;;;;8.40;7.00;;;9.40;99.90;;;;;;5141314;27;20634;-85
2022/04/14 05:20:42;;;;;;;9.03;7.30;;;9.00;99.90;;;;;;5142534;27;20677;-86
2022/04/14 05:23:09;;;;;;;7.60;6.90;;;9.60;99.90;;;;;;5143190;27;20648;-86
2022/04/14 05:25:39;;;;;;;7.30;6.67;;;9.10;99.90;;;;;;5141698;27;20675;-86
2022/04/14 05:28:07;;;;;;;7.37;6.67;;;9.60;99.90;;;;;;5145296;27;20621;-86
2022/04/14 05:30:33;;;;;;;10.00;8.07;;;9.80;99.90;;;;;;5144274;27;20645;-86
2022/04/14 05:33:00;;;;;;;8.23;6.43;;;9.70;99.90;;;;;;5142250;27;20630;-86
2022/04/14 05:35:27;;;;;;;9.17;7.80;;;9.60;99.90;;;;;;5147217;27;20977;-86
2022/04/14 05:37:54;;;;;;;12.40;7.07;;;10.00;99.90;;;;;;5144557;27;20614;-87
2022/04/14 05:40:21;;;;;;;10.10;6.90;;;9.70;99.90;;;;;;5144111;27;21248;-86
2022/04/14 05:42:52;;;;;;;7.67;6.67;;;9.80;99.90;;;;;;5143320;27;20642;-87
2022/04/14 05:45:20;;;;;;;8.93;7.20;;;10.10;99.90;;;;;;5146772;27;20693;-87
2022/04/14 05:47:47;;;;;;;10.20;7.20;;;9.80;99.90;;;;;;5145121;27;20629;-87
2022/04/14 05:50:14;;;;;;;9.83;7.67;;;9.90;99.90;;;;;;5142924;27;21257;-86
2022/04/14 05:52:41;;;;;;;7.80;7.00;;;10.30;99.90;;;;;;5137646;27;20637;-87
2022/04/14 05:55:09;;;;;;;12.30;8.40;;;10.40;99.90;;;;;;5142010;27;20629;-86
2022/04/14 05:57:36;;;;;;;8.47;6.73;;;10.70;99.90;;;;;;5141362;27;21205;-86
2022/04/14 06:00:06;;;;;;;11.27;7.90;;;10.30;99.90;;;;;;5142937;27;20653;-86
2022/04/14 06:02:32;;;;;;;10.33;7.97;;;10.80;99.90;;;;;;5144285;27;20641;-86
2022/04/14 06:04:59;;;;;;;7.90;7.10;;;10.30;99.90;;;;;;5141789;27;20668;-86
2022/04/14 06:07:26;;;;;;;10.17;7.23;;;10.50;99.90;;;;;;5144590;27;20629;-86
2022/04/14 06:09:53;;;;;;;10.57;7.80;;;10.50;99.90;;;;;;5141059;27;21195;-86
2022/04/14 06:12:19;;;;;;;7.87;7.17;;;11.00;99.90;;;;;;5136952;27;20633;-86
2022/04/14 06:14:46;;;;;;;8.37;6.70;;;10.70;99.90;;;;;;5145967;27;20665;-86
2022/04/14 06:17:14;;;;;;;11.13;7.30;;;11.20;99.90;;;;;;5143740;27;20640;-86
2022/04/14 06:19:41;;;;;;;8.67;6.50;;;11.30;99.90;;;;;;5141796;27;21014;-85
2022/04/14 06:22:08;;;;;;;9.20;6.47;;;11.10;99.90;;;;;;5143845;27;20616;-86
2022/04/14 06:24:34;;;;;;;7.60;6.30;;;11.70;99.90;;;;;;5141589;27;20672;-85
2022/04/14 06:27:01;;;;;;;8.37;7.13;;;11.90;99.90;;;;;;5143940;27;21174;-86
2022/04/14 06:29:28;;;;;;;14.87;12.80;;;12.10;99.90;;;;;;5143028;27;20622;-85
2022/04/14 06:31:55;;;;;;;15.20;13.70;;;12.20;99.90;;;;;;5141633;27;20745;-85
2022/04/14 06:34:23;;;;;;;9.93;8.80;;;12.40;99.90;;;;;;5142438;27;21092;-86
2022/04/14 06:36:49;;;;;;;10.40;8.40;;;12.50;99.90;;;;;;5144006;27;20621;-86
2022/04/14 06:39:16;;;;;;;13.03;7.83;;;12.60;99.90;;;;;;5142907;27;20625;-85
2022/04/14 06:41:43;;;;;;;9.90;7.40;;;12.70;99.90;;;;;;5145142;27;20988;-85
2022/04/14 06:44:10;;;;;;;9.47;6.80;;;12.90;99.90;;;;;;5141458;27;20634;-86
2022/04/14 06:46:38;;;;;;;11.03;7.77;;;13.00;99.90;;;;;;5137928;27;20637;-85
2022/04/14 06:49:05;;;;;;;9.23;7.33;;;13.00;99.90;;;;;;5138817;27;20642;-84
2022/04/14 06:51:34;;;;;;;9.60;7.70;;;13.20;99.90;;;;;;5139866;27;20652;-84
2022/04/14 06:54:00;;;;;;;13.43;8.50;;;13.30;99.90;;;;;;5136531;27;21460;-85
2022/04/14 06:56:27;;;;;;;12.63;8.77;;;13.40;99.90;;;;;;5143509;27;20662;-85
2022/04/14 06:58:54;;;;;;;14.80;8.57;;;13.50;99.90;;;;;;5147102;27;20621;-85
2022/04/14 07:01:23;;;;;;;16.37;9.30;;;13.60;99.90;;;;;;5139872;27;20674;-85
2022/04/14 07:03:49;;;;;;;15.77;8.30;;;13.70;99.90;;;;;;5136919;27;20633;-85
2022/04/14 07:06:16;;;;;;;13.03;8.37;;;13.80;99.90;;;;;;5141880;27;20658;-85
2022/04/14 07:08:45;;;;;;;17.70;10.20;;;13.90;99.90;;;;;;5138195;27;20964;-86
2022/04/14 07:11:12;;;;;;;13.57;10.20;;;14.00;99.90;;;;;;5134930;27;20617;-85
2022/04/14 07:13:39;;;;;;;15.90;12.50;;;14.10;99.90;;;;;;5137911;27;20720;-85
2022/04/14 07:16:06;;;;;;;24.77;22.17;;;14.20;99.90;;;;;;5144607;27;20677;-86
2022/04/14 07:18:33;;;;;;;28.37;25.53;;;14.30;99.90;;;;;;5141719;27;20636;-85
2022/04/14 07:20:59;;;;;;;18.83;13.97;;;14.40;99.90;;;;;;5145095;27;21182;-85
2022/04/14 07:23:27;;;;;;;17.33;14.53;;;14.50;99.90;;;;;;5139437;27;21139;-85
2022/04/14 07:25:55;;;;;;;18.07;16.33;;;14.50;99.90;;;;;;5136559;27;20654;-85
2022/04/14 07:28:22;;;;;;;23.93;20.97;;;14.60;99.90;;;;;;5142637;27;20628;-85
2022/04/14 07:30:49;;;;;;;25.63;23.30;;;14.70;99.90;;;;;;5147418;27;20609;-85
2022/04/14 07:33:16;;;;;;;27.13;24.73;;;14.80;99.90;;;;;;5146126;27;20621;-85
2022/04/14 07:35:42;;;;;;;27.63;24.67;;;14.90;99.90;;;;;;5144180;27;20753;-85
2022/04/14 07:38:09;;;;;;;25.07;22.30;;;15.10;99.90;;;;;;5143278;27;20617;-85
2022/04/14 07:40:36;;;;;;;25.10;22.40;;;15.10;99.90;;;;;;5143405;27;20706;-86
2022/04/14 07:43:04;;;;;;;23.67;21.43;;;15.20;99.90;;;;;;5145641;27;20640;-86
2022/04/14 07:45:31;;;;;;;23.17;21.03;;;15.30;99.90;;;;;;5146955;27;20726;-86
2022/04/14 07:47:57;;;;;;;24.47;21.17;;;15.40;99.90;;;;;;5142706;27;20637;-87
2022/04/14 07:50:24;;;;;;;25.17;21.30;;;15.50;99.90;;;;;;5139448;27;20622;-87
2022/04/14 07:52:55;;;;;;;27.53;21.83;;;15.60;99.90;;;;;;5144670;27;20613;-87
2022/04/14 07:55:23;;;;;;;23.20;20.97;;;15.80;99.90;;;;;;5143272;27;20713;-87
2022/04/14 07:57:51;;;;;;;23.33;20.93;;;15.90;99.90;;;;;;5143956;27;20612;-86
2022/04/14 08:00:20;;;;;;;21.97;19.70;;;16.00;99.90;;;;;;5144706;27;20752;-87
2022/04/14 08:02:53;;;;;;;23.50;21.33;;;16.10;99.90;;;;;;5142866;27;20662;-86
2022/04/14 08:05:22;;;;;;;24.57;20.70;;;16.20;99.90;;;;;;5140233;27;21187;-86
2022/04/14 08:07:49;;;;;;;22.10;19.83;;;16.20;99.90;;;;;;5144889;27;20637;-86
2022/04/14 08:10:16;;;;;;;24.30;21.60;;;16.30;99.90;;;;;;5143028;27;20651;-87
2022/04/14 08:12:43;;;;;;;22.33;20.10;;;16.50;99.90;;;;;;5144623;27;20628;-86
2022/04/14 08:15:12;;;;;;;22.47;20.33;;;16.50;99.90;;;;;;5142128;27;20610;-87
2022/04/14 08:17:42;;;;;;;21.53;19.43;;;16.60;99.90;;;;;;5145324;27;20645;-87
2022/04/14 08:20:11;;;;;;;28.13;20.20;;;16.70;99.90;;;;;;5144033;27;20756;-86
2022/04/14 08:22:48;;;;;;;21.80;19.70;;;16.90;99.90;;;;;;5140408;27;20625;-87
2022/04/14 08:25:17;;;;;;;21.73;19.70;;;17.00;99.90;;;;;;5143981;27;20618;-86
2022/04/14 08:27:44;;;;;;;23.43;20.97;;;17.10;99.90;;;;;;5144798;27;20613;-86
2022/04/14 08:30:12;;;;;;;20.80;18.83;;;17.20;99.90;;;;;;5147292;27;21128;-87
2022/04/14 08:32:41;;;;;;;21.03;18.43;;;17.20;99.90;;;;;;5146319;27;20621;-87
2022/04/14 08:35:09;;;;;;;21.43;19.30;;;17.30;99.90;;;;;;5142786;27;20617;-86
2022/04/14 08:37:36;;;;;;;20.60;18.83;;;17.30;99.90;;;;;;5141081;27;20649;-85
2022/04/14 08:40:07;;;;;;;21.23;19.00;;;17.40;99.90;;;;;;5139983;27;21005;-86
2022/04/14 08:42:39;;;;;;;26.50;21.27;;;17.50;99.90;;;;;;5148017;27;20636;-86
2022/04/14 08:45:08;;;;;;;22.87;20.60;;;17.50;99.90;;;;;;5143868;27;20625;-86
2022/04/14 08:47:37;;;;;;;22.43;20.33;;;17.70;99.90;;;;;;5142983;27;20663;-86
2022/04/14 08:50:07;;;;;;;20.83;18.93;;;17.80;99.90;;;;;;5139655;27;20629;-86
2022/04/14 08:52:35;;;;;;;22.93;20.17;;;17.90;99.90;;;;;;5141650;27;20614;-86
2022/04/14 08:55:04;;;;;;;20.00;18.10;;;18.00;99.90;;;;;;5134043;27;21118;-86
2022/04/14 08:57:32;;;;;;;21.47;19.27;;;18.10;99.90;;;;;;5136415;27;20703;-86
2022/04/14 09:00:00;;;;;;;21.10;18.70;;;18.10;99.90;;;;;;5144528;27;21158;-86
2022/04/14 09:02:28;;;;;;;20.10;18.17;;;18.20;99.90;;;;;;5141532;27;20648;-86
2022/04/14 09:04:56;;;;;;;20.77;18.37;;;18.40;99.90;;;;;;5144808;27;20605;-86
2022/04/14 09:07:25;;;;;;;24.20;18.00;;;18.50;99.90;;;;;;5147363;27;20629;-86
2022/04/14 09:09:52;;;;;;;19.60;17.50;;;18.60;99.90;;;;;;5142694;27;20638;-86
2022/04/14 09:12:19;;;;;;;20.80;18.73;;;18.70;99.90;;;;;;5136191;27;20668;-86
2022/04/14 09:14:46;;;;;;;17.43;15.90;;;18.80;99.90;;;;;;5144533;27;20637;-85
2022/04/14 09:17:13;;;;;;;19.97;18.23;;;18.90;99.90;;;;;;5140718;27;20982;-86
2022/04/14 09:19:41;;;;;;;18.40;16.43;;;18.80;99.90;;;;;;5144225;27;20655;-86
2022/04/14 09:22:10;;;;;;;19.23;16.67;;;18.90;99.90;;;;;;5144890;27;20677;-84
2022/04/14 09:24:44;;;;;;;19.33;17.43;;;19.00;99.90;;;;;;5144323;27;20652;-84
2022/04/14 09:27:22;;;;;;;20.77;18.10;;;19.00;99.90;;;;;;5142117;27;20632;-84
2022/04/14 09:29:49;;;;;;;18.77;16.97;;;19.00;99.90;;;;;;5141477;27;20641;-84
2022/04/14 09:32:30;;;;;;;18.47;16.57;;;19.10;99.90;;;;;;5148104;27;20668;-84
2022/04/14 09:34:57;;;;;;;20.27;18.33;;;19.30;99.90;;;;;;5147538;27;20953;-84
2022/04/14 09:37:25;;;;;;;17.67;15.90;;;19.40;99.90;;;;;;5137245;27;20633;-84
2022/04/14 09:39:59;;;;;;;22.53;16.50;;;19.50;99.90;;;;;;5140655;27;21236;-84
2022/04/14 09:42:28;;;;;;;17.70;16.20;;;19.60;99.90;;;;;;5140247;27;20653;-84
2022/04/14 09:44:56;;;;;;;17.00;15.60;;;19.80;99.90;;;;;;5145642;27;20693;-85
2022/04/14 09:47:37;;;;;;;19.47;17.37;;;19.80;99.90;;;;;;5143589;27;20613;-84
2022/04/14 09:50:05;;;;;;;16.23;14.67;;;19.90;99.90;;;;;;5140937;27;20613;-84
2022/04/14 09:52:31;;;;;;;17.87;16.07;;;19.90;99.90;;;;;;5138542;27;20991;-84
2022/04/14 09:55:09;;;;;;;19.07;17.07;;;19.90;99.90;;;;;;5140147;27;20625;-84
2022/04/14 09:57:36;;;;;;;17.47;15.87;;;19.90;99.90;;;;;;5137743;27;20645;-84
2022/04/14 10:00:04;;;;;;;25.20;18.03;;;19.90;99.90;;;;;;5145783;27;20990;-84
2022/04/14 10:02:31;;;;;;;18.37;16.77;;;19.90;99.90;;;;;;5144991;27;20997;-84
2022/04/14 10:04:59;;;;;;;17.23;15.70;;;19.80;99.90;;;;;;5140552;27;21219;-84
2022/04/14 10:07:26;;;;;;;16.83;14.97;;;19.90;99.90;;;;;;5141516;27;20625;-84
2022/04/14 10:09:53;;;;;;;17.27;15.53;;;20.00;99.90;;;;;;5145088;27;21139;-84
2022/04/14 10:12:31;;;;;;;18.97;16.30;;;20.20;99.90;;;;;;5134804;27;21066;-85
2022/04/14 10:15:01;;;;;;;18.20;16.40;;;20.40;99.90;;;;;;5139237;27;20614;-84
2022/04/14 10:17:29;;;;;;;20.77;16.07;;;20.50;99.90;;;;;;5141461;27;20666;-85
2022/04/14 10:19:56;;;;;;;18.70;13.93;;;20.60;99.90;;;;;;5138561;27;20748;-84
2022/04/14 10:22:24;;;;;;;16.10;14.20;;;20.70;99.90;;;;;;5136355;27;20673;-85
2022/04/14 10:24:52;;;;;;;16.37;14.77;;;21.00;99.90;;;;;;5138301;27;20629;-84
2022/04/14 10:27:21;;;;;;;17.97;16.17;;;21.20;99.90;;;;;;5137302;27;20701;-84
2022/04/14 10:29:49;;;;;;;18.60;14.97;;;21.40;99.90;;;;;;5139525;27;20633;-85
2022/04/14 10:32:17;;;;;;;15.80;13.77;;;21.40;99.90;;;;;;5143526;27;20915;-83
2022/04/14 10:34:45;;;;;;;16.80;14.00;;;21.70;99.90;;;;;;5141039;27;20641;-84
2022/04/14 10:37:17;;;;;;;18.57;15.43;;;21.90;99.90;;;;;;5147343;27;20613;-84
2022/04/14 10:39:48;;;;;;;18.63;16.57;;;22.20;98.70;;;;;;5146342;27;20609;-83
2022/04/14 10:42:19;;;;;;;21.10;17.77;;;22.30;97.10;;;;;;5145807;27;21033;-83
2022/04/14 10:44:47;;;;;;;14.43;12.50;;;22.30;96.80;;;;;;5144313;27;20618;-83
2022/04/14 10:47:33;;;;;;;14.37;13.07;;;22.50;97.20;;;;;;5141731;27;20622;-84
2022/04/14 10:50:00;;;;;;;17.90;12.93;;;22.80;96.30;;;;;;5138040;27;20883;-84
2022/04/14 10:52:28;;;;;;;14.43;13.00;;;23.10;96.00;;;;;;5142839;27;20613;-84
2022/04/14 10:54:58;;;;;;;15.93;14.10;;;23.40;95.50;;;;;;5143053;27;20614;-84
2022/04/14 10:57:42;;;;;;;17.00;14.13;;;23.50;92.90;;;;;;5136225;27;20629;-84
2022/04/14 11:00:34;;;;;;;16.03;14.37;;;23.50;93.10;;;;;;5139482;27;20685;-83
2022/04/14 11:03:11;;;;;;;17.53;15.83;;;23.60;93.30;;;;;;5139248;27;20669;-84
2022/04/14 11:05:46;;;;;;;15.47;13.83;;;23.80;93.00;;;;;;5142581;27;20651;-84
2022/04/14 11:08:26;;;;;;;14.83;13.30;;;24.10;92.80;;;;;;5140050;27;20632;-84
2022/04/14 11:10:54;;;;;;;15.30;13.80;;;24.20;92.50;;;;;;5144542;27;20653;-84
2022/04/14 11:13:21;;;;;;;16.97;13.23;;;24.50;92.00;;;;;;5139709;27;20729;-84
2022/04/14 11:15:48;;;;;;;16.97;13.00;;;24.70;91.10;;;;;;5142008;27;21036;-84
2022/04/14 11:18:16;;;;;;;13.20;11.80;;;25.10;90.30;;;;;;5148825;27;20605;-84
2022/04/14 11:20:54;;;;;;;15.57;13.33;;;25.20;87.40;;;;;;5147790;27;20657;-83
2022/04/14 11:23:24;;;;;;;15.53;14.00;;;25.50;88.10;;;;;;5138642;27;20641;-84
2022/04/14 11:25:52;;;;;;;15.80;12.43;;;25.80;85.80;;;;;;5149716;27;20613;-83
2022/04/14 11:28:25;;;;;;;17.33;11.67;;;25.90;83.80;;;;;;5143268;27;20633;-84
2022/04/14 11:30:53;;;;;;;17.87;11.00;;;26.00;83.00;;;;;;5142860;27;20666;-84
2022/04/14 11:33:44;;;;;;;15.60;14.10;;;26.20;81.40;;;;;;5149901;27;20613;-83
2022/04/14 11:36:13;;;;;;;12.43;11.33;;;26.00;79.20;;;;;;5139160;27;20635;-84
2022/04/14 11:38:57;;;;;;;16.20;13.40;;;26.10;77.20;;;;;;5139784;27;20724;-82
2022/04/14 11:41:36;;;;;;;13.30;12.10;;;25.90;77.00;;;;;;5141636;27;20674;-83
2022/04/14 11:44:05;;;;;;;15.00;11.30;;;26.00;77.50;;;;;;5146069;27;20681;-83
2022/04/14 11:46:32;;;;;;;17.47;15.87;;;26.10;78.50;;;;;;5143144;27;20622;-83
2022/04/14 11:49:02;;;;;;;16.37;14.73;;;26.30;77.30;;;;;;5144158;27;20976;-83
2022/04/14 11:51:28;;;;;;;15.00;13.60;;;26.30;77.80;;;;;;5147420;27;20645;-83
2022/04/14 11:53:56;;;;;;;17.13;14.20;;;26.20;78.40;;;;;;5145589;27;20623;-83
2022/04/14 11:56:24;;;;;;;17.73;13.93;;;26.20;78.60;;;;;;5145742;27;20640;-83
2022/04/14 11:58:52;;;;;;;14.40;12.93;;;26.10;77.10;;;;;;5137442;27;20641;-83
2022/04/14 12:01:19;;;;;;;15.10;13.60;;;26.10;78.00;;;;;;5143441;27;20674;-84
2022/04/14 12:03:46;;;;;;;15.37;13.90;;;26.50;78.20;;;;;;5142299;27;20637;-83
2022/04/14 12:06:17;;;;;;;17.47;13.50;;;26.90;77.70;;;;;;5144296;27;20622;-83
2022/04/14 12:08:54;;;;;;;15.93;14.43;;;27.10;76.80;;;;;;5138797;27;20634;-83
2022/04/14 12:11:21;;;;;;;14.60;13.30;;;27.50;73.40;;;;;;5144200;27;20645;-83
2022/04/14 12:13:48;;;;;;;17.10;15.80;;;27.70;73.40;;;;;;5144821;27;20629;-83
2022/04/14 12:16:15;;;;;;;17.97;16.20;;;27.70;72.60;;;;;;5141173;27;20714;-84
2022/04/14 12:18:49;;;;;;;16.00;14.33;;;27.30;73.50;;;;;;5141144;27;20629;-83
2022/04/14 12:21:27;;;;;;;15.20;13.80;;;27.20;73.50;;;;;;5144747;27;20722;-83
2022/04/14 12:23:55;;;;;;;14.07;12.87;;;27.20;73.60;;;;;;5140519;27;21303;-83
2022/04/14 12:26:27;;;;;;;15.00;13.50;;;27.20;73.60;;;;;;5145349;27;21163;-83
2022/04/14 12:28:54;;;;;;;12.20;11.10;;;27.40;72.30;;;;;;5146750;27;20678;-83
2022/04/14 12:31:21;;;;;;;14.70;13.40;;;27.80;72.50;;;;;;5145207;27;20704;-83
2022/04/14 12:34:00;;;;;;;14.73;11.50;;;28.10;69.40;;;;;;5146539;27;20923;-83
2022/04/14 12:36:35;;;;;;;17.30;14.47;;;28.40;69.50;;;;;;5144459;27;21207;-83
2022/04/14 12:39:06;;;;;;;15.63;14.03;;;28.60;66.80;;;;;;5138461;27;20607;-83
2022/04/14 12:41:36;;;;;;;13.60;12.30;;;28.40;66.10;;;;;;5141595;27;20761;-83
2022/04/14 12:44:04;;;;;;;12.43;11.43;;;28.40;67.20;;;;;;5144991;27;20604;-83